sensor_id;sensor_type;location;lat;lon;timestamp;P1;durP1;ratioP1;P2;durP2;ratioP2
38190;SDS011;25191;47.510;19.124;2023-03-23T00:04:38;217.25;;;196.85;;
38190;SDS011;25191;47.510;19.124;2023-03-23T00:14:38;234.80;;;212.70;;
38190;SDS011;25191;47.510;19.124;2023-03-23T00:24:43;207.02;;;187.63;;
38190;SDS011;25191;47.510;19.124;2023-03-23T00:34:44;218.02;;;197.75;;
38190;SDS011;25191;47.510;19.124;2023-03-23T00:44:47;226.77;;;205.67;;
38190;SDS011;25191;47.510;19.124;2023-03-23T00:54:48;244.30;;;221.32;;
38190;SDS011;25191;47.510;19.124;2023-03-23T01:04:50;222.07;;;201.30;;
38190;SDS011;25191;47.510;19.124;2023-03-23T01:14:52;238.65;;;216.23;;
38190;SDS011;25191;47.510;19.124;2023-03-23T01:24:52;248.98;;;225.30;;
38190;SDS011;25191;47.510;19.124;2023-03-23T01:34:54;253.55;;;229.32;;
38190;SDS011;25191;47.510;19.124;2023-03-23T01:54:55;306.83;;;277.23;;
38190;SDS011;25191;47.510;19.124;2023-03-23T02:04:59;357.15;;;322.90;;
38190;SDS011;25191;47.510;19.124;2023-03-23T02:15:04;197.52;;;179.48;;
38190;SDS011;25191;47.510;19.124;2023-03-23T02:35:39;121.78;;;111.95;;
38190;SDS011;25191;47.510;19.124;2023-03-23T02:45:47;113.82;;;104.78;;
38190;SDS011;25191;47.510;19.124;2023-03-23T02:55:50;116.88;;;107.65;;
38190;SDS011;25191;47.510;19.124;2023-03-23T03:26:22;112.83;;;103.93;;
38190;SDS011;25191;47.510;19.124;2023-03-23T03:36:27;117.40;;;108.03;;
38190;SDS011;25191;47.510;19.124;2023-03-23T03:46:35;129.15;;;118.55;;
38190;SDS011;25191;47.510;19.124;2023-03-23T03:56:37;118.30;;;108.93;;
38190;SDS011;25191;47.510;19.124;2023-03-23T04:06:40;114.50;;;105.40;;
38190;SDS011;25191;47.510;19.124;2023-03-23T04:16:40;107.90;;;99.50;;
38190;SDS011;25191;47.510;19.124;2023-03-23T04:26:48;99.03;;;91.35;;
38190;SDS011;25191;47.510;19.124;2023-03-23T04:36:48;92.50;;;85.38;;
38190;SDS011;25191;47.510;19.124;2023-03-23T04:46:49;134.43;;;123.38;;
38190;SDS011;25191;47.510;19.124;2023-03-23T04:56:50;123.35;;;113.30;;
38190;SDS011;25191;47.510;19.124;2023-03-23T05:06:53;116.75;;;107.35;;
38190;SDS011;25191;47.510;19.124;2023-03-23T05:16:54;96.57;;;88.97;;
38190;SDS011;25191;47.510;19.124;2023-03-23T05:26:57;119.03;;;109.47;;
38190;SDS011;25191;47.510;19.124;2023-03-23T05:36:58;107.88;;;98.25;;
38190;SDS011;25191;47.510;19.124;2023-03-23T05:47:00;142.30;;;129.38;;
38190;SDS011;25191;47.510;19.124;2023-03-23T05:57:01;135.00;;;122.88;;
38190;SDS011;25191;47.510;19.124;2023-03-23T06:07:03;232.67;;;210.50;;
38190;SDS011;25191;47.510;19.124;2023-03-23T06:17:05;248.05;;;223.98;;
38190;SDS011;25191;47.510;19.124;2023-03-23T06:27:06;208.13;;;188.55;;
38190;SDS011;25191;47.510;19.124;2023-03-23T06:37:08;197.43;;;179.02;;
38190;SDS011;25191;47.510;19.124;2023-03-23T06:47:09;216.43;;;195.98;;
38190;SDS011;25191;47.510;19.124;2023-03-23T06:57:09;205.32;;;185.25;;
38190;SDS011;25191;47.510;19.124;2023-03-23T07:07:10;188.27;;;170.55;;
38190;SDS011;25191;47.510;19.124;2023-03-23T07:17:14;253.23;;;228.35;;
38190;SDS011;25191;47.510;19.124;2023-03-23T07:27:14;137.65;;;125.45;;
38190;SDS011;25191;47.510;19.124;2023-03-23T07:37:15;214.80;;;194.32;;
38190;SDS011;25191;47.510;19.124;2023-03-23T07:47:17;320.50;;;289.05;;
38190;SDS011;25191;47.510;19.124;2023-03-23T07:57:18;425.13;;;382.42;;
38190;SDS011;25191;47.510;19.124;2023-03-23T08:07:19;287.02;;;259.08;;
38190;SDS011;25191;47.510;19.124;2023-03-23T08:17:20;626.28;;;568.67;;
38190;SDS011;25191;47.510;19.124;2023-03-23T08:27:20;303.67;;;273.77;;
38190;SDS011;25191;47.510;19.124;2023-03-23T08:37:25;339.00;;;305.60;;
38190;SDS011;25191;47.510;19.124;2023-03-23T08:47:44;357.48;;;322.17;;
38190;SDS011;25191;47.510;19.124;2023-03-23T08:57:46;418.43;;;376.50;;
38190;SDS011;25191;47.510;19.124;2023-03-23T09:07:49;392.10;;;352.77;;
38190;SDS011;25191;47.510;19.124;2023-03-23T09:17:51;576.42;;;522.47;;
38190;SDS011;25191;47.510;19.124;2023-03-23T09:27:56;108.47;;;99.20;;
38190;SDS011;25191;47.510;19.124;2023-03-23T09:37:58;160.68;;;145.77;;
38190;SDS011;25191;47.510;19.124;2023-03-23T10:29:33;521.25;;;472.17;;
38190;SDS011;25191;47.510;19.124;2023-03-23T10:39:49;501.42;;;452.55;;
38190;SDS011;25191;47.510;19.124;2023-03-23T11:00:16;474.93;;;428.03;;
38190;SDS011;25191;47.510;19.124;2023-03-23T11:10:23;500.05;;;451.52;;
38190;SDS011;25191;47.510;19.124;2023-03-23T11:20:27;467.23;;;421.20;;
38190;SDS011;25191;47.510;19.124;2023-03-23T11:30:29;496.85;;;448.10;;
38190;SDS011;25191;47.510;19.124;2023-03-23T11:40:31;513.00;;;463.33;;
38190;SDS011;25191;47.510;19.124;2023-03-23T11:50:44;482.80;;;435.52;;
38190;SDS011;25191;47.510;19.124;2023-03-23T12:22:00;431.52;;;388.13;;
38190;SDS011;25191;47.510;19.124;2023-03-23T12:32:30;424.88;;;382.23;;
38190;SDS011;25191;47.510;19.124;2023-03-23T13:03:31;375.95;;;338.30;;
38190;SDS011;25191;47.510;19.124;2023-03-23T13:13:49;366.35;;;329.40;;
38190;SDS011;25191;47.510;19.124;2023-03-23T13:23:58;358.17;;;322.08;;
38190;SDS011;25191;47.510;19.124;2023-03-23T13:44:21;368.30;;;330.88;;
38190;SDS011;25191;47.510;19.124;2023-03-23T13:54:41;380.35;;;341.95;;
38190;SDS011;25191;47.510;19.124;2023-03-23T14:04:42;373.30;;;335.73;;
38190;SDS011;25191;47.510;19.124;2023-03-23T14:14:47;386.23;;;347.50;;
38190;SDS011;25191;47.510;19.124;2023-03-23T14:24:52;375.80;;;337.63;;
38190;SDS011;25191;47.510;19.124;2023-03-23T14:35:04;380.52;;;341.90;;
38190;SDS011;25191;47.510;19.124;2023-03-23T14:45:07;387.17;;;347.52;;
38190;SDS011;25191;47.510;19.124;2023-03-23T14:55:22;391.20;;;351.60;;
38190;SDS011;25191;47.510;19.124;2023-03-23T15:05:27;398.58;;;357.95;;
38190;SDS011;25191;47.510;19.124;2023-03-23T15:15:35;375.93;;;337.87;;
38190;SDS011;25191;47.510;19.124;2023-03-23T15:25:36;400.00;;;359.43;;
38190;SDS011;25191;47.510;19.124;2023-03-23T15:35:47;365.35;;;328.63;;
38190;SDS011;25191;47.510;19.124;2023-03-23T15:56:04;386.70;;;347.33;;
38190;SDS011;25191;47.510;19.124;2023-03-23T16:06:08;404.42;;;363.27;;
38190;SDS011;25191;47.510;19.124;2023-03-23T16:16:13;361.75;;;325.23;;
38190;SDS011;25191;47.510;19.124;2023-03-23T16:26:27;321.38;;;288.80;;
38190;SDS011;25191;47.510;19.124;2023-03-23T16:36:27;325.42;;;292.75;;
38190;SDS011;25191;47.510;19.124;2023-03-23T16:46:28;454.35;;;408.70;;
38190;SDS011;25191;47.510;19.124;2023-03-23T16:56:29;688.07;;;625.13;;
38190;SDS011;25191;47.510;19.124;2023-03-23T17:06:30;752.00;;;685.20;;
38190;SDS011;25191;47.510;19.124;2023-03-23T17:16:31;356.13;;;320.30;;
38190;SDS011;25191;47.510;19.124;2023-03-23T17:26:32;148.35;;;135.30;;
38190;SDS011;25191;47.510;19.124;2023-03-23T17:36:33;218.63;;;197.77;;
38190;SDS011;25191;47.510;19.124;2023-03-23T17:46:34;262.55;;;236.60;;
38190;SDS011;25191;47.510;19.124;2023-03-23T17:56:35;368.58;;;331.65;;
38190;SDS011;25191;47.510;19.124;2023-03-23T18:06:36;409.60;;;368.48;;
38190;SDS011;25191;47.510;19.124;2023-03-23T18:16:38;434.05;;;390.42;;
38190;SDS011;25191;47.510;19.124;2023-03-23T18:26:39;436.05;;;392.20;;
38190;SDS011;25191;47.510;19.124;2023-03-23T18:36:41;411.10;;;369.67;;
38190;SDS011;25191;47.510;19.124;2023-03-23T18:46:42;434.73;;;390.98;;
38190;SDS011;25191;47.510;19.124;2023-03-23T18:56:43;461.35;;;415.45;;
38190;SDS011;25191;47.510;19.124;2023-03-23T19:06:44;538.45;;;486.85;;
38190;SDS011;25191;47.510;19.124;2023-03-23T19:16:45;510.80;;;460.67;;
38190;SDS011;25191;47.510;19.124;2023-03-23T19:26:46;547.88;;;495.63;;
38190;SDS011;25191;47.510;19.124;2023-03-23T19:36:48;521.80;;;471.48;;
38190;SDS011;25191;47.510;19.124;2023-03-23T19:46:52;464.70;;;417.98;;
38190;SDS011;25191;47.510;19.124;2023-03-23T19:56:53;458.33;;;412.52;;
38190;SDS011;25191;47.510;19.124;2023-03-23T20:06:54;482.48;;;435.02;;
38190;SDS011;25191;47.510;19.124;2023-03-23T20:16:55;488.02;;;440.13;;
38190;SDS011;25191;47.510;19.124;2023-03-23T20:26:56;505.23;;;456.30;;
38190;SDS011;25191;47.510;19.124;2023-03-23T20:36:58;492.33;;;444.20;;
38190;SDS011;25191;47.510;19.124;2023-03-23T20:47:01;501.95;;;453.30;;
38190;SDS011;25191;47.510;19.124;2023-03-23T20:57:10;510.00;;;460.90;;
38190;SDS011;25191;47.510;19.124;2023-03-23T21:07:12;505.85;;;456.95;;
38190;SDS011;25191;47.510;19.124;2023-03-23T21:17:13;522.10;;;472.05;;
38190;SDS011;25191;47.510;19.124;2023-03-23T21:27:13;490.67;;;442.85;;
38190;SDS011;25191;47.510;19.124;2023-03-23T21:37:14;526.13;;;475.92;;
38190;SDS011;25191;47.510;19.124;2023-03-23T21:47:15;495.42;;;447.33;;
38190;SDS011;25191;47.510;19.124;2023-03-23T21:57:18;534.93;;;484.13;;
38190;SDS011;25191;47.510;19.124;2023-03-23T22:07:20;532.47;;;481.70;;
38190;SDS011;25191;47.510;19.124;2023-03-23T22:17:22;527.15;;;476.85;;
38190;SDS011;25191;47.510;19.124;2023-03-23T22:27:23;569.13;;;515.72;;
38190;SDS011;25191;47.510;19.124;2023-03-23T22:37:23;552.88;;;500.65;;
38190;SDS011;25191;47.510;19.124;2023-03-23T22:47:24;589.50;;;534.67;;
38190;SDS011;25191;47.510;19.124;2023-03-23T22:57:24;641.85;;;583.30;;
38190;SDS011;25191;47.510;19.124;2023-03-23T23:07:25;679.03;;;617.75;;
38190;SDS011;25191;47.510;19.124;2023-03-23T23:17:26;729.80;;;664.58;;
38190;SDS011;25191;47.510;19.124;2023-03-23T23:27:26;773.97;;;705.70;;
38190;SDS011;25191;47.510;19.124;2023-03-23T23:37:27;759.40;;;692.28;;
38190;SDS011;25191;47.510;19.124;2023-03-23T23:47:27;787.53;;;718.47;;
38190;SDS011;25191;47.510;19.124;2023-03-23T23:57:28;801.75;;;731.63;;
